Time;durP1;ratioP1;P1;durP2;ratioP2;P2;SDS_P1;SDS_P2;PMS_P1;PMS_P2;Temp;Humidity;BMP_temperature;BMP_pressure;BME280_temperature;BME280_humidity;BME280_pressure;Samples;Min_cycle;Max_cycle;Signal;HPM_P1;HPM_P2
2023/02/01 00:01:31;;;;;;;8.07;5.27;;;3.10;99.90;;;2.84;84.68;98924.28;5078955;28;20206;-74
2023/02/01 00:04:01;;;;;;;6.03;4.47;;;3.10;99.90;;;2.84;84.44;98919.22;5084690;28;20204;-74
2023/02/01 00:06:30;;;;;;;5.13;4.50;;;3.10;99.90;;;2.87;83.76;98916.69;5071994;28;20205;-72
2023/02/01 00:08:58;;;;;;;7.17;5.07;;;3.20;99.90;;;2.92;84.42;98926.00;5071482;28;20603;-72
2023/02/01 00:11:27;;;;;;;5.17;4.10;;;3.20;99.90;;;2.94;84.27;98919.19;5074359;28;20224;-72
2023/02/01 00:13:55;;;;;;;7.30;4.20;;;3.20;99.90;;;2.96;84.17;98913.28;5078734;28;20202;-72
2023/02/01 00:16:26;;;;;;;5.43;4.57;;;3.20;99.90;;;3.00;84.31;98917.53;5070707;28;20213;-73
2023/02/01 00:19:02;;;;;;;5.80;4.40;;;3.30;99.90;;;3.00;84.15;98921.75;5080947;28;20273;-72
2023/02/01 00:21:31;;;;;;;6.40;4.47;;;3.30;99.90;;;3.04;84.31;98931.09;5083750;28;20765;-72
2023/02/01 00:24:00;;;;;;;4.40;4.00;;;3.30;99.90;;;3.07;83.56;98926.84;5067176;28;20195;-73
2023/02/01 00:26:35;;;;;;;5.67;4.50;;;3.40;99.90;;;3.11;83.60;98938.72;5073172;28;20283;-74
2023/02/01 00:29:06;;;;;;;4.17;3.33;;;3.40;99.90;;;3.13;84.09;98916.69;5059749;28;20619;-73
2023/02/01 00:31:35;;;;;;;4.53;3.20;;;3.40;99.90;;;3.15;82.96;98930.25;5062884;28;20205;-74
2023/02/01 00:34:05;;;;;;;3.90;3.50;;;3.40;99.90;;;3.17;82.79;98932.81;5047390;28;20539;-72
2023/02/01 00:36:34;;;;;;;3.20;2.60;;;3.40;99.90;;;3.19;82.32;98943.81;5054965;28;20224;-72
2023/02/01 00:39:03;;;;;;;3.93;3.00;;;3.40;99.90;;;3.21;82.08;98939.59;5061457;28;20218;-74
2023/02/01 00:41:32;;;;;;;3.23;2.67;;;3.40;99.90;;;3.23;81.99;98937.88;5049309;28;20203;-72
2023/02/01 00:44:01;;;;;;;4.20;2.37;;;3.50;99.90;;;3.27;81.82;98946.38;5055749;28;20236;-73
2023/02/01 00:46:29;;;;;;;3.00;2.23;;;3.50;99.90;;;3.28;81.65;98936.19;5055925;28;20214;-73
2023/02/01 00:48:58;;;;;;;2.70;1.93;;;3.50;99.90;;;3.29;81.18;98937.88;5065929;28;20206;-73
2023/02/01 00:51:30;;;;;;;3.97;2.40;;;3.50;99.90;;;3.31;81.15;98950.59;5054270;28;20591;-74
2023/02/01 00:53:58;;;;;;;2.87;2.13;;;3.60;99.90;;;3.29;80.60;98942.97;5054861;28;20255;-74
2023/02/01 00:56:28;;;;;;;2.63;1.90;;;3.60;99.90;;;3.35;80.35;98955.72;5071644;28;20202;-73
2023/02/01 00:58:57;;;;;;;2.17;1.70;;;3.60;99.90;;;3.37;79.79;98950.63;5061848;28;20259;-73
2023/02/01 01:01:27;;;;;;;3.47;1.93;;;3.60;99.90;;;3.35;79.91;98940.44;5061998;28;20205;-75
2023/02/01 01:03:58;;;;;;;3.27;1.83;;;3.60;99.90;;;3.38;80.13;98942.97;5049583;28;20202;-73
2023/02/01 01:06:31;;;;;;;2.83;1.50;;;3.60;99.90;;;3.36;79.30;98939.59;5053041;28;20209;-72
2023/02/01 01:09:01;;;;;;;3.20;1.60;;;3.50;99.90;;;3.36;78.77;98948.94;5064312;28;20202;-73
2023/02/01 01:11:33;;;;;;;4.37;1.50;;;3.60;99.90;;;3.31;78.91;98940.41;5058699;28;20214;-73
2023/02/01 01:14:01;;;;;;;1.70;1.10;;;3.50;99.90;;;3.29;78.56;98939.59;5051062;28;20209;-72
2023/02/01 01:16:32;;;;;;;3.37;1.40;;;3.50;99.90;;;3.27;79.18;98944.66;5050732;28;20252;-74
2023/02/01 01:19:01;;;;;;;3.20;1.20;;;3.50;99.90;;;3.24;79.10;98954.88;5049796;28;20203;-73
2023/02/01 01:21:32;;;;;;;2.43;1.07;;;3.50;99.90;;;3.22;79.43;98955.72;5064561;28;20209;-72
2023/02/01 01:24:01;;;;;;;2.47;0.83;;;3.50;99.90;;;3.19;78.75;98953.16;5055268;28;20236;-72
2023/02/01 01:26:30;;;;;;;4.83;1.27;;;3.40;99.90;;;3.14;78.72;98954.00;5052096;28;20235;-73
2023/02/01 01:29:00;;;;;;;2.40;1.10;;;3.40;99.90;;;3.14;78.63;98968.44;5075884;28;20256;-73
2023/02/01 01:31:29;;;;;;;1.53;0.97;;;3.40;99.90;;;3.13;78.60;98972.69;5079725;28;20231;-71
2023/02/01 01:34:00;;;;;;;1.87;0.87;;;3.40;99.90;;;3.12;78.12;98977.75;5071867;28;20208;-73
2023/02/01 01:36:31;;;;;;;1.33;0.83;;;3.40;99.90;;;3.12;78.43;98973.50;5078703;28;20228;-73
2023/02/01 01:38:59;;;;;;;3.20;1.13;;;3.30;99.90;;;3.13;77.99;98980.31;5079748;28;20248;-72
2023/02/01 01:41:32;;;;;;;1.73;1.37;;;3.30;99.90;;;3.12;78.16;98972.66;5076332;28;20834;-73
2023/02/01 01:44:04;;;;;;;1.33;1.00;;;3.40;99.90;;;3.12;78.17;98965.03;5074083;28;20747;-70
2023/02/01 01:46:35;;;;;;;2.40;1.30;;;3.40;99.90;;;3.10;77.93;98982.84;5076366;28;20205;-74
2023/02/01 01:49:11;;;;;;;2.53;0.97;;;3.30;99.90;;;3.11;78.50;98988.78;5070926;28;20289;-73
2023/02/01 01:51:48;;;;;;;1.87;1.00;;;3.30;99.90;;;3.10;77.77;98987.94;5072128;28;20280;-72
2023/02/01 01:54:22;;;;;;;3.33;1.30;;;3.30;99.90;;;3.11;78.01;98983.69;5063836;28;20209;-72
2023/02/01 01:56:57;;;;;;;5.17;1.50;;;3.30;99.90;;;3.09;77.57;98991.34;5082289;28;20197;-74
2023/02/01 01:59:26;;;;;;;3.27;1.47;;;3.30;99.90;;;3.10;77.94;98997.28;5081774;28;20247;-73
2023/02/01 02:01:56;;;;;;;3.43;1.23;;;3.30;99.90;;;3.11;77.83;98996.41;5089002;28;20209;-73
2023/02/01 02:04:25;;;;;;;5.57;1.20;;;3.30;99.90;;;3.13;77.45;98994.75;5080966;28;20248;-71
2023/02/01 02:07:01;;;;;;;3.93;1.30;;;3.30;99.90;;;3.12;77.95;98998.94;5070160;28;20210;-74
2023/02/01 02:09:30;;;;;;;4.93;1.50;;;3.40;99.90;;;3.14;77.67;99010.00;5081161;28;20262;-73
2023/02/01 02:11:59;;;;;;;8.77;1.70;;;3.30;99.90;;;3.16;77.21;99002.34;5082094;28;20221;-74
2023/02/01 02:14:29;;;;;;;4.57;1.90;;;3.30;99.90;;;3.14;77.07;98988.78;5076034;28;20205;-72
2023/02/01 02:17:19;;;;;;;5.67;1.77;;;3.30;99.90;;;3.13;76.95;99015.09;5077221;28;20240;-74
2023/02/01 02:20:41;;;;;;;2.93;1.37;;;3.30;99.90;;;3.13;76.71;99002.38;5077670;28;20196;-73
2023/02/01 02:24:03;;;;;;;3.73;1.30;;;3.30;99.90;;;3.13;76.34;99003.22;5070610;28;20704;-72
2023/02/01 02:27:03;;;;;;;5.60;1.20;;;3.30;99.90;;;3.13;76.00;99002.38;5079328;28;20645;-72
2023/02/01 02:30:37;;;;;;;5.43;1.90;;;3.30;99.90;;;3.13;75.98;99017.66;5076323;28;20237;-73
2023/02/01 02:33:46;;;;;;;4.33;1.60;;;3.30;99.90;;;3.15;75.93;99010.84;4991033;28;20236;-73
2023/02/01 02:36:25;;;;;;;4.87;1.80;;;3.30;99.90;;;3.15;75.87;99003.22;5069554;28;20209;-73
2023/02/01 02:39:03;;;;;;;5.57;1.93;;;3.30;99.90;;;3.15;76.06;98998.97;5071482;28;20275;-74
2023/02/01 02:47:34;;;;;;;5.67;1.60;;;3.30;99.90;;;3.13;75.04;99008.31;5043456;28;20276;-73
2023/02/01 03:04:18;;;;;;;4.30;1.50;;;3.30;99.90;;;3.10;76.01;99031.22;5070368;28;20209;-73
2023/02/01 03:06:48;;;;;;;7.67;2.20;;;3.30;99.90;;;3.12;75.62;99021.00;5068922;28;20630;-72
2023/02/01 03:09:27;;;;;;;6.50;1.80;;;3.30;99.90;;;3.14;75.97;99032.06;5073546;28;20270;-72
2023/02/01 03:14:57;;;;;;;5.53;1.57;;;3.30;99.90;;;3.12;75.89;99026.09;5074578;28;20546;-73
2023/02/01 03:17:38;;;;;;;5.03;1.87;;;3.30;99.90;;;3.13;76.33;99015.09;5089193;28;20608;-74
2023/02/01 03:20:10;;;;;;;10.37;2.40;;;3.40;99.90;;;3.16;76.44;99027.81;5081628;28;20197;-72
2023/02/01 03:22:43;;;;;;;6.43;1.50;;;3.40;99.90;;;3.15;76.49;99033.75;5086772;28;20250;-72
2023/02/01 03:25:15;;;;;;;3.47;1.33;;;3.40;99.90;;;3.13;76.05;99033.75;5069753;28;20201;-73
2023/02/01 03:27:50;;;;;;;5.43;2.30;;;3.40;99.90;;;3.14;75.92;99035.44;5078417;28;20274;-73
2023/02/01 03:30:22;;;;;;;5.73;1.60;;;3.40;99.90;;;3.14;76.27;99038.00;5084540;28;20734;-71
2023/02/01 03:33:00;;;;;;;10.00;2.20;;;3.30;99.90;;;3.15;76.24;99038.84;5071447;28;20279;-72
2023/02/01 03:35:34;;;;;;;4.67;1.67;;;3.40;99.90;;;3.15;76.66;99026.97;5080010;28;20200;-73
2023/02/01 03:38:14;;;;;;;6.03;1.70;;;3.40;99.90;;;3.12;76.92;99041.38;5058500;28;20205;-71
2023/02/01 03:40:46;;;;;;;11.10;1.90;;;3.30;99.90;;;3.12;77.40;99041.38;5065199;28;20208;-72
2023/02/01 03:43:19;;;;;;;9.43;2.20;;;3.40;99.90;;;3.11;77.68;99026.97;5080726;28;20202;-72
2023/02/01 03:45:53;;;;;;;10.00;2.50;;;3.30;99.90;;;3.09;77.83;99032.06;5076031;28;20193;-72
2023/02/01 03:48:24;;;;;;;9.27;1.80;;;3.30;99.90;;;3.07;78.11;99040.53;5081887;28;20197;-71
2023/02/01 03:50:58;;;;;;;6.87;2.17;;;3.20;99.90;;;3.05;77.56;99042.19;5078713;28;20193;-73
2023/02/01 03:53:29;;;;;;;10.87;2.07;;;3.30;99.90;;;3.04;78.29;99045.59;5077485;28;20213;-72
2023/02/01 03:55:58;;;;;;;8.67;1.93;;;3.20;99.90;;;3.03;78.22;99032.03;5078454;28;20190;-73
2023/02/01 03:58:26;;;;;;;9.40;2.50;;;3.30;99.90;;;3.04;78.39;99030.34;5069811;28;20213;-71
2023/02/01 04:00:57;;;;;;;9.93;2.43;;;3.20;99.90;;;3.02;78.13;99034.56;5091004;28;20262;-72
2023/02/01 04:03:27;;;;;;;6.80;1.87;;;3.30;99.90;;;3.05;78.26;99044.75;5082941;28;20208;-72
2023/02/01 04:05:56;;;;;;;8.60;2.00;;;3.30;99.90;;;3.05;78.47;99047.28;5070328;28;20197;-72
2023/02/01 04:08:26;;;;;;;6.63;1.97;;;3.20;99.90;;;3.03;78.68;99046.47;5082462;28;20258;-73
2023/02/01 04:10:55;;;;;;;6.87;1.77;;;3.20;99.90;;;3.04;78.46;99043.06;5068891;28;20198;-74
2023/02/01 04:13:23;;;;;;;9.30;2.10;;;3.20;99.90;;;3.04;78.69;99040.50;5070408;28;20363;-74
2023/02/01 04:15:52;;;;;;;8.23;2.33;;;3.20;99.90;;;3.04;79.09;99045.59;5074133;28;20240;-73
2023/02/01 04:18:20;;;;;;;8.37;2.57;;;3.30;99.90;;;3.04;78.27;99030.34;5094988;28;20262;-73
2023/02/01 04:20:49;;;;;;;9.13;2.10;;;3.20;99.90;;;3.03;78.27;99037.13;5084159;28;20201;-73
2023/02/01 04:23:17;;;;;;;5.87;1.97;;;3.30;99.90;;;3.05;78.54;99040.50;5085590;28;20210;-74
2023/02/01 04:25:47;;;;;;;8.40;2.13;;;3.20;99.90;;;3.08;78.40;99049.84;5072829;28;20197;-73
2023/02/01 04:28:16;;;;;;;5.07;1.63;;;3.30;99.90;;;3.06;77.69;99046.47;5087304;28;20281;-72
2023/02/01 04:30:46;;;;;;;10.27;2.20;;;3.30;99.90;;;3.09;77.49;99036.28;5077234;28;20205;-72
2023/02/01 04:33:15;;;;;;;4.20;1.90;;;3.30;99.90;;;3.09;77.97;99043.91;5082983;28;20287;-74
2023/02/01 04:35:43;;;;;;;11.47;2.07;;;3.30;99.90;;;3.11;77.39;99047.31;5080542;28;20210;-73
2023/02/01 04:38:12;;;;;;;6.47;2.17;;;3.30;99.90;;;3.10;77.33;99040.53;5074306;28;20213;-74
2023/02/01 04:40:41;;;;;;;8.40;2.03;;;3.30;99.90;;;3.10;77.13;99043.94;5078023;28;20201;-74
2023/02/01 04:43:11;;;;;;;6.70;2.17;;;3.30;99.90;;;3.09;76.51;99051.53;5075084;28;20209;-73
2023/02/01 04:45:40;;;;;;;9.93;2.10;;;3.30;99.90;;;3.10;77.31;99064.28;5084165;28;20204;-72
2023/02/01 04:48:08;;;;;;;6.07;1.60;;;3.30;99.90;;;3.08;76.75;99054.94;5086477;28;20220;-73
2023/02/01 04:50:37;;;;;;;5.20;1.50;;;3.30;99.90;;;3.09;76.51;99060.06;5076624;28;20212;-74
2023/02/01 04:53:05;;;;;;;9.20;1.93;;;3.30;99.90;;;3.11;76.91;99065.13;5083187;28;20274;-73
2023/02/01 04:55:34;;;;;;;9.20;2.20;;;3.30;99.90;;;3.11;76.82;99076.16;5070976;28;20214;-71
2023/02/01 04:58:02;;;;;;;5.83;1.83;;;3.40;99.90;;;3.12;76.30;99077.84;5075302;28;20206;-73
2023/02/01 05:00:32;;;;;;;6.90;1.77;;;3.40;99.90;;;3.14;76.14;99085.50;5068007;28;20223;-74
2023/02/01 05:03:00;;;;;;;8.63;2.33;;;3.40;99.90;;;3.14;76.23;99085.50;5081993;28;20671;-74
2023/02/01 05:05:29;;;;;;;10.63;1.97;;;3.30;99.90;;;3.13;76.52;99078.72;5079931;28;20288;-73
2023/02/01 05:07:58;;;;;;;8.70;2.03;;;3.40;99.90;;;3.16;75.86;99088.88;5082843;28;20225;-73
2023/02/01 05:10:26;;;;;;;7.30;2.20;;;3.40;99.90;;;3.18;76.49;99078.72;5078485;28;20590;-74
2023/02/01 05:15:41;;;;;;;5.80;1.73;;;3.40;99.90;;;3.18;75.56;99084.66;5081253;28;20247;-73
2023/02/01 05:18:10;;;;;;;8.47;2.07;;;3.40;99.90;;;3.19;76.42;99081.28;5075442;28;20237;-74
2023/02/01 05:20:39;;;;;;;7.30;2.17;;;3.40;99.90;;;3.19;76.22;99078.72;5079456;28;20649;-72
2023/02/01 05:23:07;;;;;;;7.83;2.00;;;3.40;99.90;;;3.22;75.99;99080.44;5070004;28;20227;-73
2023/02/01 05:25:35;;;;;;;7.83;1.93;;;3.40;99.90;;;3.20;75.96;99075.31;5064525;28;20284;-73
2023/02/01 05:28:04;;;;;;;10.63;2.33;;;3.50;99.90;;;3.22;75.88;99075.34;5053621;28;20221;-71
2023/02/01 05:30:34;;;;;;;9.87;2.70;;;3.50;99.90;;;3.21;75.23;99066.88;5073460;28;20259;-72
2023/02/01 05:33:05;;;;;;;7.77;2.47;;;3.40;99.90;;;3.20;75.55;99060.06;5073843;28;20217;-73
2023/02/01 05:35:33;;;;;;;5.77;2.00;;;3.40;99.90;;;3.23;75.95;99075.34;5068265;28;20602;-72
2023/02/01 05:38:02;;;;;;;7.23;1.83;;;3.50;99.90;;;3.22;75.93;99067.72;5074787;28;20209;-70
2023/02/01 05:40:31;;;;;;;8.07;1.97;;;3.40;99.90;;;3.22;76.17;99067.72;5075534;28;20662;-68
2023/02/01 05:42:59;;;;;;;8.03;2.00;;;3.40;99.90;;;3.23;75.36;99065.16;5066898;28;20665;-69
2023/02/01 05:45:27;;;;;;;8.47;2.30;;;3.50;99.90;;;3.22;75.59;99067.72;5063400;28;20576;-67
2023/02/01 05:47:56;;;;;;;10.53;3.10;;;3.50;99.90;;;3.22;75.53;99060.06;5073701;28;20220;-71
2023/02/01 05:50:26;;;;;;;9.50;2.10;;;3.50;99.90;;;3.22;74.74;99073.66;5080676;28;20629;-67
2023/02/01 05:52:54;;;;;;;8.70;1.80;;;3.40;99.90;;;3.21;75.27;99071.97;5088034;28;20583;-67
2023/02/01 05:55:25;;;;;;;3.80;1.60;;;3.40;99.90;;;3.20;75.40;99060.06;5076307;28;20197;-66
2023/02/01 05:57:53;;;;;;;7.93;2.33;;;3.40;99.90;;;3.22;75.61;99072.81;5069537;28;20228;-67
2023/02/01 06:00:23;;;;;;;9.27;1.90;;;3.50;99.90;;;3.22;75.32;99060.06;5081671;28;20182;-71
2023/02/01 06:02:52;;;;;;;8.70;2.13;;;3.40;99.90;;;3.23;74.58;99074.50;5095597;28;20179;-70
2023/02/01 06:05:22;;;;;;;7.17;2.30;;;3.40;99.90;;;3.21;75.40;99069.41;5091738;28;20259;-69
2023/02/01 06:07:53;;;;;;;4.33;2.00;;;3.40;99.90;;;3.20;75.10;99066.84;5083846;28;20253;-69
2023/02/01 06:10:22;;;;;;;7.93;2.43;;;3.40;99.90;;;3.18;75.15;99053.28;5081744;28;20208;-67
2023/02/01 06:12:51;;;;;;;6.97;2.10;;;3.40;99.90;;;3.17;75.13;99060.06;5088996;28;20197;-66
2023/02/01 06:15:19;;;;;;;5.53;2.37;;;3.40;99.90;;;3.17;75.55;99059.19;5075800;28;20230;-76
2023/02/01 06:17:47;;;;;;;9.17;2.43;;;3.50;99.90;;;3.18;75.45;99059.22;5091873;28;20181;-72
2023/02/01 06:20:17;;;;;;;6.87;2.30;;;3.40;99.90;;;3.20;75.21;99054.97;5084860;28;20212;-72
2023/02/01 06:22:46;;;;;;;10.10;2.17;;;3.40;99.90;;;3.19;76.23;99057.50;5057366;28;20241;-65
2023/02/01 06:25:16;;;;;;;7.60;2.00;;;3.40;99.90;;;3.17;75.35;99047.34;5061985;28;20228;-69
2023/02/01 06:27:45;;;;;;;9.50;2.40;;;3.40;99.90;;;3.19;75.17;99050.72;5070669;28;20550;-66
2023/02/01 06:30:15;;;;;;;7.93;1.83;;;3.40;99.90;;;3.20;75.14;99054.97;5085970;28;20233;-65
2023/02/01 06:32:43;;;;;;;5.23;2.10;;;3.50;99.90;;;3.20;75.62;99049.88;5075661;28;20205;-69
2023/02/01 06:35:15;;;;;;;10.00;1.90;;;3.40;99.90;;;3.19;75.24;99038.00;5074788;28;20220;-67
2023/02/01 06:37:45;;;;;;;9.17;2.47;;;3.50;99.90;;;3.22;75.86;99053.28;5070664;28;20555;-66
2023/02/01 06:40:15;;;;;;;7.90;2.40;;;3.40;99.90;;;3.22;75.62;99037.16;5082756;28;20238;-68
2023/02/01 06:42:44;;;;;;;5.43;1.97;;;3.50;99.90;;;3.23;75.75;99047.34;5081085;28;20205;-67
2023/02/01 06:45:12;;;;;;;7.63;2.30;;;3.50;99.90;;;3.22;74.90;99043.09;5070450;28;20234;-66
2023/02/01 06:47:42;;;;;;;8.30;1.90;;;3.50;99.90;;;3.24;75.89;99056.69;5075567;28;20714;-68
2023/02/01 06:50:11;;;;;;;11.57;2.03;;;3.40;99.90;;;3.23;75.50;99033.75;5070571;28;20213;-65
2023/02/01 06:52:40;;;;;;;8.43;2.57;;;3.50;99.90;;;3.23;75.39;99038.84;5064235;28;20680;-67
2023/02/01 06:55:09;;;;;;;5.40;2.00;;;3.50;99.90;;;3.27;75.46;99049.03;5061276;28;20252;-67
2023/02/01 06:57:39;;;;;;;6.67;2.20;;;3.50;99.90;;;3.28;75.58;99049.91;5069216;28;20699;-68
2023/02/01 07:00:09;;;;;;;7.33;1.87;;;3.50;99.90;;;3.27;75.02;99040.56;5074902;28;20205;-66
2023/02/01 07:02:38;;;;;;;7.47;1.80;;;3.50;99.90;;;3.28;75.08;99055.84;5066128;28;20201;-70
2023/02/01 07:05:07;;;;;;;7.10;1.80;;;3.60;99.90;;;3.30;75.72;99060.94;5072937;28;20719;-67
2023/02/01 07:07:36;;;;;;;10.60;2.53;;;3.50;99.90;;;3.30;75.46;99060.94;5075310;28;20213;-68
2023/02/01 07:10:05;;;;;;;8.17;2.30;;;3.60;99.90;;;3.31;75.35;99068.56;5070780;28;20201;-65
2023/02/01 07:12:34;;;;;;;7.83;2.20;;;3.60;99.90;;;3.30;75.42;99066.88;5073626;28;20201;-65
2023/02/01 07:15:04;;;;;;;13.40;2.80;;;3.50;99.90;;;3.29;75.45;99062.63;5072163;28;20225;-66
2023/02/01 07:17:33;;;;;;;8.23;2.40;;;3.50;99.90;;;3.31;75.68;99055.81;5069460;28;20212;-66
2023/02/01 07:20:01;;;;;;;6.63;2.10;;;3.50;99.90;;;3.30;75.48;99056.69;5072181;28;20661;-67
2023/02/01 07:22:30;;;;;;;8.80;2.30;;;3.50;99.90;;;3.30;74.54;99059.22;5073867;28;20213;-67
2023/02/01 07:24:59;;;;;;;9.80;2.30;;;3.60;99.90;;;3.30;74.84;99061.78;5076359;28;20661;-67
2023/02/01 07:27:28;;;;;;;7.20;2.13;;;3.50;99.90;;;3.30;74.84;99063.47;5075681;28;20228;-67
2023/02/01 07:30:01;;;;;;;8.10;2.10;;;3.50;99.90;;;3.29;75.50;99066.88;5072472;28;20273;-67
2023/02/01 07:32:31;;;;;;;10.83;3.37;;;3.50;99.90;;;3.27;75.12;99066.84;5072345;28;20198;-67
2023/02/01 07:35:00;;;;;;;9.07;2.23;;;3.50;99.90;;;3.29;75.73;99070.28;5075661;28;20268;-69
2023/02/01 07:37:29;;;;;;;12.10;3.07;;;3.50;99.90;;;3.30;75.88;99060.94;5073916;28;20223;-68
2023/02/01 07:39:58;;;;;;;9.20;2.27;;;3.60;99.90;;;3.30;75.64;99059.22;5074593;28;20213;-64
2023/02/01 07:42:26;;;;;;;10.57;2.57;;;3.50;99.90;;;3.29;76.01;99062.63;5075759;28;20258;-68
2023/02/01 07:44:55;;;;;;;9.00;3.13;;;3.60;99.90;;;3.29;76.29;99067.72;5074829;28;20227;-70
2023/02/01 07:47:24;;;;;;;5.67;1.93;;;3.60;99.90;;;3.30;76.10;99063.47;5075024;28;20229;-67
2023/02/01 07:49:54;;;;;;;8.03;2.33;;;3.60;99.90;;;3.32;76.01;99080.47;5072997;28;20643;-67
2023/02/01 07:52:23;;;;;;;6.70;1.87;;;3.50;99.90;;;3.32;75.64;99069.44;5066673;28;20283;-70
2023/02/01 07:54:51;;;;;;;12.60;3.70;;;3.60;99.90;;;3.34;76.04;99063.47;5071481;28;20450;-68
2023/02/01 07:57:21;;;;;;;7.03;2.20;;;3.60;99.90;;;3.39;76.25;99061.81;5073344;28;20203;-68
2023/02/01 08:02:36;;;;;;;8.47;3.07;;;3.60;99.90;;;3.43;75.31;99060.13;5074914;28;20201;-70
2023/02/01 08:05:07;;;;;;;6.93;2.23;;;3.60;99.90;;;3.42;75.50;99050.75;5070935;28;20247;-70
2023/02/01 08:07:36;;;;;;;10.03;2.50;;;3.70;99.90;;;3.42;75.81;99048.22;5072023;28;20755;-70
2023/02/01 08:10:10;;;;;;;9.07;2.50;;;3.70;99.90;;;3.43;75.20;99051.63;5069574;28;20205;-68
2023/02/01 08:12:39;;;;;;;16.63;3.67;;;3.70;99.90;;;3.45;75.43;99047.38;5075553;28;21374;-64
2023/02/01 08:15:09;;;;;;;5.30;2.40;;;3.70;99.90;;;3.47;76.14;99038.91;5067063;28;20252;-62
2023/02/01 08:17:37;;;;;;;9.70;2.40;;;3.70;99.90;;;3.47;75.81;99045.69;5072519;28;20611;-63
2023/02/01 08:20:09;;;;;;;10.43;3.13;;;3.70;99.90;;;3.49;75.69;99052.47;5072892;28;20213;-63
2023/02/01 08:22:38;;;;;;;14.73;3.37;;;3.70;99.90;;;3.50;75.90;99054.19;5074160;28;20217;-64
2023/02/01 08:25:08;;;;;;;12.93;2.77;;;3.80;99.90;;;3.50;74.89;99048.22;5073535;28;20244;-65
2023/02/01 08:27:37;;;;;;;7.40;2.57;;;3.70;99.90;;;3.51;75.62;99049.94;5073341;28;20209;-62
2023/02/01 08:30:08;;;;;;;8.87;2.63;;;3.70;99.90;;;3.51;75.91;99065.22;5073289;28;20229;-64
2023/02/01 08:32:36;;;;;;;6.23;2.27;;;3.70;99.90;;;3.50;75.89;99059.28;5069137;28;20197;-64
2023/02/01 08:35:08;;;;;;;8.20;2.50;;;3.80;99.90;;;3.51;75.47;99055.03;5068338;28;20323;-63
2023/02/01 08:37:36;;;;;;;12.07;3.03;;;3.80;99.90;;;3.50;75.61;99058.41;5080427;28;20204;-65
2023/02/01 08:40:07;;;;;;;6.57;2.67;;;3.70;99.90;;;3.49;76.00;99065.19;5075782;28;20209;-66
2023/02/01 08:42:53;;;;;;;10.17;2.80;;;3.80;99.90;;;3.49;76.20;99066.91;5063538;28;20255;-67
2023/02/01 08:45:26;;;;;;;9.47;3.00;;;3.70;99.90;;;3.48;76.29;99055.03;5068825;28;20194;-65
2023/02/01 08:47:55;;;;;;;10.07;2.87;;;3.70;99.90;;;3.47;76.81;99060.97;5074822;28;20197;-66
2023/02/01 08:50:26;;;;;;;10.73;2.90;;;3.80;99.90;;;3.46;76.64;99057.56;5074635;28;20205;-66
2023/02/01 08:52:55;;;;;;;7.50;3.17;;;3.70;99.90;;;3.47;77.52;99063.50;5070950;28;20317;-65
2023/02/01 08:55:23;;;;;;;9.00;2.50;;;3.70;99.90;;;3.47;76.79;99059.28;5062308;28;20607;-64
2023/02/01 08:57:52;;;;;;;14.40;3.27;;;3.70;99.90;;;3.46;77.41;99069.44;5069442;28;20209;-63
2023/02/01 09:00:20;;;;;;;15.57;3.30;;;3.70;99.90;;;3.48;77.49;99065.22;5071753;28;20628;-66
2023/02/01 09:02:50;;;;;;;7.97;2.70;;;3.70;99.90;;;3.48;77.03;99070.31;5078031;28;20227;-66
2023/02/01 09:05:21;;;;;;;7.83;2.70;;;3.70;99.90;;;3.50;77.02;99060.94;5077962;28;20602;-64
2023/02/01 09:07:51;;;;;;;8.23;2.90;;;3.70;99.90;;;3.51;76.74;99045.69;5075468;28;20734;-63
2023/02/01 09:10:20;;;;;;;9.40;2.80;;;3.80;99.90;;;3.53;75.72;99061.78;5078521;28;20231;-62
2023/02/01 09:13:02;;;;;;;14.30;2.67;;;3.80;99.90;;;3.57;75.92;99060.97;5074545;28;20255;-63
2023/02/01 09:15:32;;;;;;;10.73;2.73;;;3.80;99.90;;;3.59;75.66;99060.97;5072596;28;20228;-64
2023/02/01 09:18:01;;;;;;;11.93;2.63;;;3.80;99.90;;;3.61;75.04;99057.59;5076448;28;20228;-63
2023/02/01 09:20:30;;;;;;;8.27;2.40;;;3.80;99.90;;;3.61;74.64;99067.78;5075854;28;20201;-64
2023/02/01 09:23:00;;;;;;;9.40;2.30;;;3.90;99.90;;;3.66;75.08;99060.13;5076717;28;20208;-63
2023/02/01 09:25:28;;;;;;;8.00;2.27;;;3.90;99.90;;;3.69;74.52;99062.69;5077757;28;20606;-66
2023/02/01 09:27:56;;;;;;;11.67;3.30;;;3.90;99.90;;;3.71;73.93;99063.50;5077412;28;20224;-64
2023/02/01 09:30:26;;;;;;;9.17;2.53;;;3.90;99.90;;;3.74;73.18;99057.56;5078531;28;20255;-65
2023/02/01 09:32:58;;;;;;;9.40;2.83;;;4.00;99.90;;;3.74;73.61;99060.13;5076457;28;20235;-63
2023/02/01 09:35:27;;;;;;;9.57;3.00;;;4.00;99.90;;;3.78;73.21;99060.13;5077148;28;20703;-64
2023/02/01 09:37:56;;;;;;;12.47;2.73;;;4.00;99.90;;;3.81;73.35;99046.53;5076278;28;20209;-63
2023/02/01 09:40:25;;;;;;;9.00;3.00;;;4.00;99.90;;;3.81;72.94;99041.44;5075251;28;20212;-63
2023/02/01 09:43:22;;;;;;;9.60;2.47;;;4.10;99.90;;;3.87;73.30;99044.00;5075049;28;20289;-65
2023/02/01 09:46:01;;;;;;;7.77;2.73;;;4.10;99.90;;;3.92;73.00;99032.09;5059210;28;20209;-62
2023/02/01 09:48:35;;;;;;;10.23;2.70;;;4.20;99.90;;;4.02;72.30;99033.78;5067970;28;20220;-63
2023/02/01 09:51:12;;;;;;;10.47;2.50;;;4.30;99.90;;;4.24;72.47;99034.59;5076591;28;20589;-63
2023/02/01 09:53:47;;;;;;;9.77;2.53;;;4.50;99.90;;;4.46;70.90;99044.75;5068756;28;20196;-62
2023/02/01 09:56:25;;;;;;;10.17;3.50;;;4.70;99.90;;;4.70;70.98;99026.75;5073864;28;20259;-64
2023/02/01 09:59:04;;;;;;;6.57;2.70;;;4.90;99.90;;;5.05;69.17;99038.53;5071131;28;20339;-65
2023/02/01 10:01:33;;;;;;;11.73;3.03;;;5.20;99.90;;;5.39;68.23;99056.19;5075818;28;20281;-66
2023/02/01 10:04:07;;;;;;;6.57;2.33;;;5.50;99.90;;;5.48;66.28;99038.22;5076737;28;20201;-67
2023/02/01 10:06:52;;;;;;;9.23;2.97;;;5.60;99.90;;;5.46;66.60;99043.38;5077428;28;20291;-65
2023/02/01 10:09:43;;;;;;;7.27;2.40;;;5.60;99.90;;;5.38;66.36;99044.28;5078013;28;20216;-63
2023/02/01 10:12:54;;;;;;;10.23;3.23;;;5.60;99.90;;;5.23;66.65;99046.09;5076057;28;20201;-64
2023/02/01 10:15:41;;;;;;;11.93;2.77;;;5.40;99.90;;;5.09;67.18;99048.72;5073118;28;20205;-63
2023/02/01 10:18:29;;;;;;;5.87;2.30;;;5.40;99.90;;;4.98;66.88;99037.69;5070611;28;20231;-64
2023/02/01 10:21:07;;;;;;;11.90;3.57;;;5.20;99.90;;;4.90;67.52;99030.91;5055917;28;20206;-62
2023/02/01 10:24:17;;;;;;;7.50;2.50;;;5.10;99.90;;;4.82;68.28;99043.72;5061614;28;20208;-63
2023/02/01 10:26:52;;;;;;;11.67;3.10;;;5.10;99.90;;;4.73;68.40;99047.19;5060198;28;20711;-63
2023/02/01 10:29:27;;;;;;;7.97;3.37;;;5.00;99.90;;;4.66;68.52;99035.28;5067183;28;20648;-63
2023/02/01 10:31:56;;;;;;;6.30;2.37;;;4.90;99.90;;;4.63;69.00;99042.94;5072675;28;20201;-63
2023/02/01 10:34:29;;;;;;;9.03;2.97;;;4.90;99.90;;;4.62;69.25;99046.38;5074320;28;20216;-63
2023/02/01 10:37:01;;;;;;;10.50;3.10;;;4.90;99.90;;;4.58;68.92;99037.03;5076082;28;20213;-64
2023/02/01 10:39:29;;;;;;;9.17;2.87;;;4.80;99.90;;;4.59;69.24;99046.38;5076394;28;20217;-63
2023/02/01 10:41:58;;;;;;;8.33;2.73;;;4.80;99.90;;;4.58;69.09;99039.59;5074119;28;20224;-62
2023/02/01 10:44:31;;;;;;;9.80;2.73;;;4.80;99.90;;;4.60;69.80;99038.72;5073707;28;20676;-64
2023/02/01 10:46:59;;;;;;;10.27;2.60;;;4.90;99.90;;;4.66;69.62;99062.50;5076482;28;20607;-64
2023/02/01 10:49:39;;;;;;;11.23;2.97;;;4.90;99.90;;;4.69;69.19;99048.03;5074294;28;20202;-65
2023/02/01 10:52:15;;;;;;;9.63;2.67;;;5.00;99.90;;;4.72;69.05;99029.34;5074475;28;20197;-64
2023/02/01 10:54:43;;;;;;;6.43;2.60;;;5.00;99.90;;;4.76;68.99;99048.88;5073974;28;20205;-66
2023/02/01 10:57:25;;;;;;;10.60;2.87;;;5.00;99.90;;;4.76;68.96;99036.97;5074972;28;20267;-63
2023/02/01 10:59:56;;;;;;;9.33;2.87;;;5.00;99.90;;;4.79;68.64;99047.16;5074162;28;20315;-66
2023/02/01 11:02:31;;;;;;;10.10;3.00;;;5.10;99.90;;;4.96;68.84;99043.66;5063710;28;20193;-64
2023/02/01 11:05:03;;;;;;;11.10;3.33;;;5.20;99.90;;;5.12;67.93;99040.19;5075628;28;20212;-64
2023/02/01 11:07:33;;;;;;;7.53;2.73;;;5.40;99.90;;;5.32;67.79;99037.50;5067875;28;20217;-66
2023/02/01 11:10:05;;;;;;;13.00;2.83;;;5.60;99.90;;;6.17;68.71;99047.91;5075982;28;20209;-62
2023/02/01 11:12:36;;;;;;;6.07;2.53;;;6.30;99.90;;;6.98;62.28;99031.63;5062976;28;20197;-64
2023/02/01 11:15:20;;;;;;;8.00;2.70;;;6.80;99.90;;;7.04;61.90;99026.41;5072747;28;20205;-65
2023/02/01 11:17:54;;;;;;;9.80;2.40;;;7.00;99.90;;;7.10;62.46;99031.44;5074145;28;20213;-62
2023/02/01 11:20:40;;;;;;;8.67;2.90;;;7.20;99.90;;;6.93;61.61;99024.00;5071969;28;20549;-62
2023/02/01 11:23:16;;;;;;;7.50;2.73;;;7.10;99.90;;;6.76;62.72;99031.88;5071933;28;20205;-63